createdAt,value
2023-03-05T00:03:25.326Z,85.09
2023-03-05T00:06:48.451Z,84.93
2023-03-05T00:10:46.914Z,84.64
2023-03-05T00:14:13.757Z,84.74
2023-03-05T00:18:05.716Z,84.49
2023-03-05T00:21:46.832Z,84.66
2023-03-05T00:25:09.563Z,84.87
2023-03-05T00:29:07.589Z,85.07
2023-03-05T00:32:50.274Z,85.03
2023-03-05T00:36:17.557Z,85.09
2023-03-05T00:39:53.524Z,85.08
2023-03-05T00:43:49.248Z,84.76
2023-03-05T00:47:32.471Z,84.64
2023-03-05T00:51:14.094Z,84.29
2023-03-05T00:54:36.574Z,84.12
2023-03-05T00:58:15.363Z,84.00
2023-03-05T01:01:51.999Z,83.86
2023-03-05T01:05:30.114Z,83.68
2023-03-05T01:09:09.179Z,83.68
2023-03-05T01:12:46.430Z,83.74
2023-03-05T01:16:24.972Z,83.33
2023-03-05T01:20:00.193Z,83.27
2023-03-05T01:23:39.739Z,83.51
2023-03-05T01:27:16.274Z,83.53
2023-03-05T01:30:53.523Z,83.61
2023-03-05T01:34:32.586Z,83.88
2023-03-05T01:38:08.773Z,84.00
2023-03-05T01:41:47.154Z,84.45
2023-03-05T01:46:21.142Z,84.39
2023-03-05T01:49:43.618Z,84.21
2023-03-05T01:53:21.356Z,83.95
2023-03-05T01:57:04.669Z,83.90
2023-03-05T02:00:55.668Z,83.84
2023-03-05T02:04:50.717Z,83.56
2023-03-05T02:08:19.784Z,83.34
2023-03-05T02:11:52.424Z,83.34
2023-03-05T02:15:30.535Z,83.40
2023-03-05T02:19:26.934Z,83.56
2023-03-05T02:23:07.854Z,83.38
2023-03-05T02:26:30.362Z,83.11
2023-03-05T02:30:28.048Z,83.04
2023-03-05T02:34:09.225Z,83.60
2023-03-05T02:37:31.516Z,83.57
2023-03-05T02:41:28.225Z,83.88
2023-03-05T02:44:51.522Z,83.74
2023-03-05T02:48:29.352Z,83.84
2023-03-05T02:52:27.997Z,83.55
2023-03-05T02:55:50.722Z,82.82
2023-03-05T02:59:27.728Z,82.70
2023-03-05T03:03:24.585Z,82.36
2023-03-05T03:06:46.861Z,82.47
2023-03-05T03:10:43.466Z,82.42
2023-03-05T03:14:05.698Z,82.55
2023-03-05T03:17:43.684Z,82.46
2023-03-05T03:21:39.962Z,82.20
2023-03-05T03:25:22.675Z,82.01
2023-03-05T03:28:47.755Z,81.98
2023-03-05T03:32:46.824Z,81.92
2023-03-05T03:36:09.387Z,81.87
2023-03-05T03:40:06.151Z,81.73
2023-03-05T03:43:47.766Z,81.94
2023-03-05T03:47:11.407Z,82.01
2023-03-05T03:51:08.693Z,82.12
2023-03-05T03:54:34.003Z,82.12
2023-03-05T03:58:28.766Z,81.71
2023-03-05T04:02:11.245Z,81.45
2023-03-05T04:05:34.260Z,81.45
2023-03-05T04:09:11.849Z,81.41
2023-03-05T04:13:08.853Z,81.30
2023-03-05T04:16:50.347Z,81.22
2023-03-05T04:20:31.303Z,81.06
2023-03-05T04:24:12.660Z,80.89
2023-03-05T04:27:55.292Z,80.68
2023-03-05T04:31:38.197Z,80.56
2023-03-05T04:35:06.216Z,80.36
2023-03-05T04:38:39.479Z,80.34
2023-03-05T04:42:38.324Z,80.58
2023-03-05T04:46:01.812Z,80.77
2023-03-05T04:50:04.544Z,80.86
2023-03-05T04:53:26.835Z,81.09
2023-03-05T04:57:04.988Z,80.91
2023-03-05T05:00:42.182Z,80.49
2023-03-05T05:04:20.126Z,80.42
2023-03-05T05:07:58.684Z,80.43
2023-03-05T05:11:54.092Z,79.70
2023-03-05T05:15:35.377Z,79.69
2023-03-05T05:18:58.006Z,79.74
2023-03-05T05:22:54.347Z,79.63
2023-03-05T05:26:17.686Z,79.53
2023-03-05T05:29:55.467Z,79.95
2023-03-05T05:33:33.041Z,80.15
2023-03-05T05:37:10.655Z,80.47
2023-03-05T05:40:48.385Z,80.53
2023-03-05T05:44:26.625Z,80.46
2023-03-05T05:48:03.822Z,80.37
2023-03-05T05:51:43.043Z,80.26
2023-03-05T05:55:19.220Z,80.22
2023-03-05T05:59:15.862Z,80.12
2023-03-05T06:02:57.089Z,80.27
2023-03-05T06:06:38.501Z,80.28
2023-03-05T06:10:03.237Z,80.68
2023-03-05T06:13:59.352Z,81.02
2023-03-05T06:17:42.141Z,81.20
2023-03-05T06:21:24.007Z,81.01
2023-03-05T06:25:07.204Z,80.93
2023-03-05T06:28:49.693Z,80.90
2023-03-05T06:32:17.439Z,80.79
2023-03-05T06:35:50.792Z,80.52
2023-03-05T06:39:47.611Z,80.43
2023-03-05T06:43:30.715Z,80.78
2023-03-05T06:46:53.600Z,81.18
2023-03-05T06:50:35.339Z,81.41
2023-03-05T06:54:14.506Z,81.28
2023-03-05T06:57:46.741Z,81.23
2023-03-05T07:01:44.335Z,81.07
2023-03-05T07:05:25.729Z,80.78
2023-03-05T07:09:12.215Z,80.83
2023-03-05T07:12:38.861Z,80.56
2023-03-05T07:16:17.375Z,80.60
2023-03-05T07:19:51.843Z,80.47
2023-03-05T07:23:49.718Z,80.77
2023-03-05T07:27:18.789Z,80.71
2023-03-05T07:31:01.689Z,81.10
2023-03-05T07:34:30.705Z,81.33
2023-03-05T07:38:27.664Z,81.37
2023-03-05T07:42:09.353Z,81.14
2023-03-05T07:45:45.573Z,80.95
2023-03-05T07:49:41.035Z,80.97
2023-03-05T07:53:03.701Z,80.92
2023-03-05T07:56:41.619Z,80.56
2023-03-05T08:00:39.015Z,80.49
2023-03-05T08:04:20.782Z,80.62
2023-03-05T08:07:46.654Z,80.81
2023-03-05T08:11:22.761Z,81.03
2023-03-05T08:15:19.030Z,81.30
2023-03-05T08:18:41.561Z,81.20
2023-03-05T08:22:21.080Z,81.05
2023-03-05T08:25:58.404Z,81.07
2023-03-05T08:29:34.382Z,80.90
2023-03-05T08:33:12.996Z,80.94
2023-03-05T08:36:50.225Z,80.99
2023-03-05T08:40:27.380Z,81.12
2023-03-05T08:44:05.322Z,81.07
2023-03-05T08:47:45.644Z,81.10
2023-03-05T08:51:39.538Z,81.60
2023-03-05T08:55:01.782Z,81.69
2023-03-05T08:58:58.220Z,81.85
2023-03-05T09:02:20.625Z,81.44
2023-03-05T09:06:21.522Z,81.42
2023-03-05T09:10:10.847Z,81.39
2023-03-05T09:13:35.001Z,81.44
2023-03-05T09:17:12.968Z,81.24
2023-03-05T09:21:14.085Z,81.51
2023-03-05T09:24:36.608Z,81.66
2023-03-05T09:28:30.016Z,81.83
2023-03-05T09:31:54.151Z,82.08
2023-03-05T09:35:37.540Z,82.01
2023-03-05T09:39:09.472Z,81.96
2023-03-05T09:42:57.150Z,81.81
2023-03-05T09:46:42.564Z,81.70
2023-03-05T09:50:14.697Z,81.99
2023-03-05T09:53:50.773Z,82.16
2023-03-05T09:57:46.270Z,82.85
2023-03-05T10:01:38.999Z,83.09
2023-03-05T10:18:29.048Z,83.70
2023-03-05T10:22:29.716Z,84.00
2023-03-05T10:26:04.695Z,84.05
2023-03-05T10:30:31.619Z,84.38
2023-03-05T10:34:22.683Z,83.92
2023-03-05T10:38:12.596Z,83.83
2023-03-05T10:41:45.252Z,83.93
2023-03-05T10:45:48.708Z,84.02
2023-03-05T10:49:20.582Z,84.10
2023-03-05T10:53:06.587Z,84.01
2023-03-05T10:56:32.052Z,83.58
2023-03-05T11:00:32.589Z,83.01
2023-03-05T11:03:59.301Z,82.77
2023-03-05T11:07:53.090Z,82.65
2023-03-05T11:11:36.628Z,82.23
2023-03-05T11:15:16.426Z,81.78
2023-03-05T11:19:33.785Z,80.98
2023-03-05T11:23:05.658Z,81.08
2023-03-05T11:26:56.378Z,80.25
2023-03-05T11:30:31.069Z,80.21
2023-03-05T11:34:16.980Z,80.17
2023-03-05T11:37:39.203Z,79.95
2023-03-05T11:41:22.317Z,80.20
2023-03-05T11:44:55.958Z,80.53
2023-03-05T11:48:36.359Z,80.79
2023-03-05T11:52:45.631Z,80.50
2023-03-05T11:56:41.644Z,79.58
2023-03-05T12:00:11.451Z,77.95
2023-03-05T12:03:44.905Z,76.27
2023-03-05T12:07:46.603Z,75.52
2023-03-05T12:11:32.827Z,74.80
2023-03-05T12:15:06.313Z,74.66
2023-03-05T12:19:13.497Z,73.79
2023-03-05T12:22:56.899Z,74.21
2023-03-05T12:26:59.273Z,74.51
2023-03-05T12:30:44.828Z,73.62
2023-03-05T12:34:46.305Z,74.34
2023-03-05T12:38:33.818Z,74.97
2023-03-05T12:41:56.639Z,76.08
2023-03-05T12:46:34.970Z,76.77
2023-03-05T12:50:28.107Z,77.17
2023-03-05T12:54:55.730Z,77.20
2023-03-05T12:58:34.612Z,76.14
2023-03-05T13:02:03.131Z,75.63
2023-03-05T13:05:57.118Z,74.83
2023-03-05T13:09:28.898Z,75.22
2023-03-05T13:13:16.002Z,74.20
2023-03-05T13:16:40.147Z,74.53
2023-03-05T13:20:42.017Z,74.43
2023-03-05T13:24:25.220Z,74.12
2023-03-05T13:27:49.537Z,74.29
2023-03-05T13:31:49.757Z,74.23
2023-03-05T13:35:14.816Z,74.43
2023-03-05T13:38:53.213Z,74.30
2023-03-05T13:42:54.773Z,74.27
2023-03-05T13:46:39.512Z,74.04
2023-03-05T13:50:08.258Z,74.39
2023-03-05T13:53:59.075Z,74.13
2023-03-05T13:57:53.185Z,73.48
2023-03-05T14:01:43.531Z,73.92
2023-03-05T14:05:15.108Z,73.56
2023-03-05T14:08:53.115Z,73.46
2023-03-05T14:12:38.730Z,73.82
2023-03-05T14:16:12.121Z,74.51
2023-03-05T14:20:11.216Z,75.30
2023-03-05T14:23:59.912Z,76.31
2023-03-05T14:27:41.842Z,77.04
2023-03-05T14:31:16.149Z,77.89
2023-03-05T14:34:51.899Z,78.22
2023-03-05T14:38:25.172Z,79.01
2023-03-05T14:42:14.438Z,78.79
2023-03-05T14:45:41.025Z,78.95
2023-03-05T14:49:35.542Z,78.68
2023-03-05T14:53:26.518Z,79.08
2023-03-05T14:56:51.374Z,79.56
2023-03-05T15:00:28.829Z,79.84
2023-03-05T15:04:04.268Z,80.45
2023-03-05T15:08:00.999Z,80.80
2023-03-05T15:11:43.861Z,80.80
2023-03-05T15:15:26.348Z,80.81
2023-03-05T15:18:52.643Z,81.00
2023-03-05T15:22:28.675Z,80.66
2023-03-05T15:26:07.918Z,80.51
2023-03-05T15:29:42.666Z,80.53
2023-03-05T15:33:41.078Z,80.56
2023-03-05T15:37:04.948Z,80.76
2023-03-05T15:40:41.609Z,80.97
2023-03-05T15:44:39.515Z,81.23
2023-03-05T15:48:22.696Z,81.75
2023-03-05T15:51:45.515Z,82.51
2023-03-05T15:55:22.962Z,82.67
2023-03-05T15:59:01.327Z,82.78
2023-03-05T16:03:00.054Z,83.24
2023-03-05T16:06:24.908Z,83.73
2023-03-05T16:10:02.003Z,83.90
2023-03-05T16:13:37.896Z,83.78
2023-03-05T16:17:35.713Z,83.63
2023-03-05T16:21:17.654Z,83.41
2023-03-05T16:25:00.651Z,83.29
2023-03-05T16:28:23.194Z,83.53
2023-03-05T16:32:24.572Z,84.03
2023-03-05T16:35:47.880Z,84.11
2023-03-05T16:39:24.679Z,84.23
2023-03-05T16:43:04.903Z,84.09
2023-03-05T16:46:58.815Z,83.82
2023-03-05T16:50:42.420Z,83.78
2023-03-05T16:54:10.077Z,84.08
2023-03-05T16:57:43.957Z,84.14
2023-03-05T17:01:39.627Z,84.43
2023-03-05T17:05:22.222Z,84.56
2023-03-05T17:08:47.664Z,84.83
2023-03-05T17:12:23.337Z,84.71
2023-03-05T17:16:00.491Z,84.42
2023-03-05T17:19:38.560Z,84.19
2023-03-05T17:23:15.551Z,84.23
2023-03-05T17:26:53.366Z,83.90
2023-03-05T17:30:36.697Z,83.70
2023-03-05T17:34:09.240Z,83.66
2023-03-05T17:37:46.757Z,83.69
2023-03-05T17:41:24.609Z,84.10
2023-03-05T17:45:01.613Z,84.33
2023-03-05T17:48:59.126Z,84.52
2023-03-05T17:52:21.939Z,84.69
2023-03-05T17:55:59.656Z,84.64
2023-03-05T17:59:37.212Z,84.41
2023-03-05T18:03:15.321Z,83.80
2023-03-05T18:06:52.242Z,83.76
2023-03-05T18:10:51.415Z,84.09
2023-03-05T18:14:17.016Z,84.35
2023-03-05T18:18:17.257Z,84.56
2023-03-05T18:21:42.046Z,84.76
2023-03-05T18:25:19.026Z,84.75
2023-03-05T18:28:57.267Z,84.62
2023-03-05T18:32:37.272Z,84.46
2023-03-05T18:36:12.461Z,84.49
2023-03-05T18:40:13.560Z,84.32
2023-03-05T18:43:36.649Z,84.52
2023-03-05T18:47:33.217Z,84.75
2023-03-05T18:50:55.767Z,84.98
2023-03-05T18:54:34.985Z,84.81
2023-03-05T18:58:34.134Z,84.62
2023-03-05T19:02:17.384Z,84.74
2023-03-05T19:06:07.288Z,84.44
2023-03-05T19:10:09.025Z,84.13
2023-03-05T19:13:54.681Z,84.12
2023-03-05T19:17:18.234Z,84.44
2023-03-05T19:20:56.021Z,84.60
2023-03-05T19:24:33.390Z,84.82
2023-03-05T19:28:29.652Z,84.85
2023-03-05T19:31:55.574Z,84.76
2023-03-05T19:35:29.916Z,84.62
2023-03-05T19:39:08.355Z,84.35
2023-03-05T19:42:45.164Z,84.18
2023-03-05T19:46:23.370Z,84.37
2023-03-05T19:50:00.733Z,84.38
2023-03-05T19:53:58.705Z,84.65
2023-03-05T19:57:39.961Z,84.94
2023-03-05T20:01:20.447Z,85.17
2023-03-05T20:05:02.442Z,84.84
2023-03-05T20:08:29.167Z,84.96
2023-03-05T20:12:04.943Z,84.87
2023-03-05T20:15:59.442Z,84.56
2023-03-05T20:19:24.091Z,84.27
2023-03-05T20:23:01.290Z,84.32
2023-03-05T20:26:40.027Z,84.22
2023-03-05T20:30:18.660Z,84.18
2023-03-05T20:33:53.083Z,84.26
2023-03-05T20:38:21.052Z,84.55
2023-03-05T20:41:43.073Z,84.66
2023-03-05T20:45:21.130Z,84.98
2023-03-05T20:49:03.539Z,84.84
2023-03-05T20:52:40.985Z,84.89
2023-03-05T20:56:36.060Z,84.54
2023-03-05T21:00:00.436Z,84.46
2023-03-05T21:03:40.712Z,84.08
2023-03-05T21:07:33.997Z,84.08
2023-03-05T21:10:56.283Z,84.09
2023-03-05T21:14:40.505Z,84.18
2023-03-05T21:18:32.101Z,84.31
2023-03-05T21:21:55.371Z,84.24
2023-03-05T21:25:33.905Z,84.46
2023-03-05T21:29:30.359Z,84.61
2023-03-05T21:32:53.193Z,84.93
2023-03-05T21:36:30.384Z,84.68
2023-03-05T21:40:27.360Z,84.49
2023-03-05T21:43:49.667Z,84.32
2023-03-05T21:47:47.148Z,84.00
2023-03-05T21:51:58.214Z,84.02
2023-03-05T21:56:08.673Z,84.03
2023-03-05T22:00:12.999Z,83.63
2023-03-05T22:03:40.529Z,83.75
2023-03-05T22:07:32.532Z,83.85
2023-03-05T22:10:54.928Z,84.10
2023-03-05T22:14:34.503Z,84.07
2023-03-05T22:18:10.259Z,84.42
2023-03-05T22:21:48.203Z,84.68
2023-03-05T22:25:44.809Z,84.83
2023-03-05T22:29:13.784Z,84.91
2023-03-05T22:33:06.986Z,84.15
2023-03-05T22:36:30.071Z,84.15
2023-03-05T22:40:26.002Z,84.36
2023-03-05T22:43:49.566Z,84.89
2023-03-05T22:47:27.247Z,85.36
2023-03-05T22:51:07.580Z,85.24
2023-03-05T22:54:43.249Z,85.19
2023-03-05T22:58:24.810Z,84.99
2023-03-05T23:01:56.510Z,84.81
2023-03-05T23:05:35.410Z,84.53
2023-03-05T23:09:30.765Z,84.47
2023-03-05T23:12:55.310Z,84.51
2023-03-05T23:16:30.732Z,84.65
2023-03-05T23:20:30.821Z,85.19
2023-03-05T23:24:11.867Z,85.06
2023-03-05T23:27:53.498Z,85.06
2023-03-05T23:31:20.441Z,85.25
2023-03-05T23:35:15.715Z,85.13
2023-03-05T23:38:57.444Z,85.02
2023-03-05T23:42:21.324Z,84.80
2023-03-05T23:46:00.467Z,84.73
2023-03-05T23:49:55.482Z,84.60
2023-03-05T23:53:20.914Z,84.63
2023-03-05T23:56:55.781Z,84.47
